sensor_id;sensor_type;location;lat;lon;timestamp;P1;durP1;ratioP1;P2;durP2;ratioP2
4694;SDS011;2361;49.540;8.390;2024-02-16T00:01:08;3.63;;;3.22;;
4694;SDS011;2361;49.540;8.390;2024-02-16T00:03:30;5.82;;;4.20;;
4694;SDS011;2361;49.540;8.390;2024-02-16T00:05:52;6.05;;;3.83;;
4694;SDS011;2361;49.540;8.390;2024-02-16T00:08:15;5.00;;;3.60;;
4694;SDS011;2361;49.540;8.390;2024-02-16T00:10:37;6.80;;;4.17;;
4694;SDS011;2361;49.540;8.390;2024-02-16T00:12:59;3.92;;;3.53;;
4694;SDS011;2361;49.540;8.390;2024-02-16T00:15:21;5.40;;;3.78;;
4694;SDS011;2361;49.540;8.390;2024-02-16T00:17:44;4.72;;;3.88;;
4694;SDS011;2361;49.540;8.390;2024-02-16T00:20:06;5.72;;;3.83;;
4694;SDS011;2361;49.540;8.390;2024-02-16T00:22:29;5.60;;;3.90;;
4694;SDS011;2361;49.540;8.390;2024-02-16T00:24:51;4.63;;;3.40;;
4694;SDS011;2361;49.540;8.390;2024-02-16T00:27:13;6.30;;;4.10;;
4694;SDS011;2361;49.540;8.390;2024-02-16T00:29:36;6.90;;;4.00;;
4694;SDS011;2361;49.540;8.390;2024-02-16T00:31:59;6.15;;;3.95;;
4694;SDS011;2361;49.540;8.390;2024-02-16T00:34:21;5.40;;;3.90;;
4694;SDS011;2361;49.540;8.390;2024-02-16T00:36:43;6.75;;;3.85;;
4694;SDS011;2361;49.540;8.390;2024-02-16T00:39:05;5.30;;;3.20;;
4694;SDS011;2361;49.540;8.390;2024-02-16T00:41:27;3.88;;;3.40;;
4694;SDS011;2361;49.540;8.390;2024-02-16T00:43:49;6.65;;;4.30;;
4694;SDS011;2361;49.540;8.390;2024-02-16T00:46:13;9.32;;;3.60;;
4694;SDS011;2361;49.540;8.390;2024-02-16T00:48:35;5.78;;;3.40;;
4694;SDS011;2361;49.540;8.390;2024-02-16T00:50:57;4.95;;;3.42;;
4694;SDS011;2361;49.540;8.390;2024-02-16T00:53:19;3.35;;;2.95;;
4694;SDS011;2361;49.540;8.390;2024-02-16T00:55:41;4.82;;;3.30;;
4694;SDS011;2361;49.540;8.390;2024-02-16T00:58:03;5.35;;;3.35;;
4694;SDS011;2361;49.540;8.390;2024-02-16T01:00:25;6.63;;;3.40;;
4694;SDS011;2361;49.540;8.390;2024-02-16T01:02:47;4.57;;;3.33;;
4694;SDS011;2361;49.540;8.390;2024-02-16T01:05:09;5.60;;;3.33;;
4694;SDS011;2361;49.540;8.390;2024-02-16T01:07:32;4.75;;;3.10;;
4694;SDS011;2361;49.540;8.390;2024-02-16T01:09:54;7.88;;;3.50;;
4694;SDS011;2361;49.540;8.390;2024-02-16T01:12:17;6.50;;;3.30;;
4694;SDS011;2361;49.540;8.390;2024-02-16T01:14:39;6.40;;;3.20;;
4694;SDS011;2361;49.540;8.390;2024-02-16T01:17:01;5.35;;;3.60;;
4694;SDS011;2361;49.540;8.390;2024-02-16T01:19:23;5.30;;;3.80;;
4694;SDS011;2361;49.540;8.390;2024-02-16T01:21:45;5.82;;;3.80;;
4694;SDS011;2361;49.540;8.390;2024-02-16T01:24:13;5.22;;;3.80;;
4694;SDS011;2361;49.540;8.390;2024-02-16T01:26:35;9.00;;;3.45;;
4694;SDS011;2361;49.540;8.390;2024-02-16T01:28:57;3.50;;;3.00;;
4694;SDS011;2361;49.540;8.390;2024-02-16T01:31:20;4.15;;;3.22;;
4694;SDS011;2361;49.540;8.390;2024-02-16T01:33:41;4.30;;;3.07;;
4694;SDS011;2361;49.540;8.390;2024-02-16T01:36:04;5.35;;;3.40;;
4694;SDS011;2361;49.540;8.390;2024-02-16T01:38:26;4.38;;;3.47;;
4694;SDS011;2361;49.540;8.390;2024-02-16T01:40:48;5.90;;;3.78;;
4694;SDS011;2361;49.540;8.390;2024-02-16T01:43:10;4.63;;;3.28;;
4694;SDS011;2361;49.540;8.390;2024-02-16T01:45:32;7.20;;;3.60;;
4694;SDS011;2361;49.540;8.390;2024-02-16T01:47:54;3.20;;;2.90;;
4694;SDS011;2361;49.540;8.390;2024-02-16T01:50:17;3.70;;;3.15;;
4694;SDS011;2361;49.540;8.390;2024-02-16T01:52:40;5.20;;;3.45;;
4694;SDS011;2361;49.540;8.390;2024-02-16T01:55:04;4.10;;;3.40;;
4694;SDS011;2361;49.540;8.390;2024-02-16T01:57:31;4.55;;;3.60;;
4694;SDS011;2361;49.540;8.390;2024-02-16T01:59:53;4.47;;;3.30;;
4694;SDS011;2361;49.540;8.390;2024-02-16T02:02:15;5.80;;;3.65;;
4694;SDS011;2361;49.540;8.390;2024-02-16T02:04:37;6.85;;;3.58;;
4694;SDS011;2361;49.540;8.390;2024-02-16T02:06:59;4.72;;;4.22;;
4694;SDS011;2361;49.540;8.390;2024-02-16T02:09:21;5.80;;;4.50;;
4694;SDS011;2361;49.540;8.390;2024-02-16T02:11:43;5.88;;;4.30;;
4694;SDS011;2361;49.540;8.390;2024-02-16T02:14:06;5.93;;;4.10;;
4694;SDS011;2361;49.540;8.390;2024-02-16T02:16:28;6.55;;;4.20;;
4694;SDS011;2361;49.540;8.390;2024-02-16T02:18:53;6.97;;;4.20;;
4694;SDS011;2361;49.540;8.390;2024-02-16T02:21:16;6.65;;;4.10;;
4694;SDS011;2361;49.540;8.390;2024-02-16T02:23:39;4.30;;;3.53;;
4694;SDS011;2361;49.540;8.390;2024-02-16T02:26:02;6.40;;;4.20;;
4694;SDS011;2361;49.540;8.390;2024-02-16T02:28:24;4.70;;;4.10;;
4694;SDS011;2361;49.540;8.390;2024-02-16T02:30:46;6.90;;;4.30;;
4694;SDS011;2361;49.540;8.390;2024-02-16T02:33:08;6.63;;;4.30;;
4694;SDS011;2361;49.540;8.390;2024-02-16T02:35:32;5.68;;;4.20;;
4694;SDS011;2361;49.540;8.390;2024-02-16T02:37:54;6.30;;;4.38;;
4694;SDS011;2361;49.540;8.390;2024-02-16T02:40:16;5.80;;;3.92;;
4694;SDS011;2361;49.540;8.390;2024-02-16T02:42:38;4.75;;;4.10;;
4694;SDS011;2361;49.540;8.390;2024-02-16T02:45:01;5.80;;;4.00;;
4694;SDS011;2361;49.540;8.390;2024-02-16T02:47:24;5.70;;;4.20;;
4694;SDS011;2361;49.540;8.390;2024-02-16T02:49:46;4.72;;;3.80;;
4694;SDS011;2361;49.540;8.390;2024-02-16T02:52:08;7.05;;;4.30;;
4694;SDS011;2361;49.540;8.390;2024-02-16T02:54:30;4.40;;;4.00;;
4694;SDS011;2361;49.540;8.390;2024-02-16T02:56:52;8.25;;;4.25;;
4694;SDS011;2361;49.540;8.390;2024-02-16T02:59:14;4.85;;;3.80;;
4694;SDS011;2361;49.540;8.390;2024-02-16T03:01:36;4.67;;;4.10;;
4694;SDS011;2361;49.540;8.390;2024-02-16T03:03:58;7.38;;;4.13;;
4694;SDS011;2361;49.540;8.390;2024-02-16T03:06:22;5.00;;;3.90;;
4694;SDS011;2361;49.540;8.390;2024-02-16T03:08:44;5.45;;;4.20;;
4694;SDS011;2361;49.540;8.390;2024-02-16T03:11:07;4.47;;;3.80;;
4694;SDS011;2361;49.540;8.390;2024-02-16T03:13:29;6.40;;;4.25;;
4694;SDS011;2361;49.540;8.390;2024-02-16T03:15:51;7.40;;;4.30;;
4694;SDS011;2361;49.540;8.390;2024-02-16T03:18:14;5.70;;;4.00;;
4694;SDS011;2361;49.540;8.390;2024-02-16T03:20:36;6.80;;;4.22;;
4694;SDS011;2361;49.540;8.390;2024-02-16T03:22:58;5.65;;;4.20;;
4694;SDS011;2361;49.540;8.390;2024-02-16T03:25:20;5.88;;;3.90;;
4694;SDS011;2361;49.540;8.390;2024-02-16T03:27:42;5.70;;;4.27;;
4694;SDS011;2361;49.540;8.390;2024-02-16T03:30:05;5.03;;;4.18;;
4694;SDS011;2361;49.540;8.390;2024-02-16T03:32:27;7.57;;;3.63;;
4694;SDS011;2361;49.540;8.390;2024-02-16T03:34:49;4.57;;;3.70;;
4694;SDS011;2361;49.540;8.390;2024-02-16T03:37:11;4.97;;;4.10;;
4694;SDS011;2361;49.540;8.390;2024-02-16T03:39:33;5.53;;;3.92;;
4694;SDS011;2361;49.540;8.390;2024-02-16T03:41:55;4.93;;;3.65;;
4694;SDS011;2361;49.540;8.390;2024-02-16T03:44:17;6.00;;;3.50;;
4694;SDS011;2361;49.540;8.390;2024-02-16T03:46:39;4.60;;;3.60;;
4694;SDS011;2361;49.540;8.390;2024-02-16T03:49:01;3.67;;;3.20;;
4694;SDS011;2361;49.540;8.390;2024-02-16T03:51:23;5.57;;;3.72;;
4694;SDS011;2361;49.540;8.390;2024-02-16T03:53:45;6.15;;;3.92;;
4694;SDS011;2361;49.540;8.390;2024-02-16T03:56:07;6.65;;;3.75;;
4694;SDS011;2361;49.540;8.390;2024-02-16T03:58:30;7.50;;;3.85;;
4694;SDS011;2361;49.540;8.390;2024-02-16T04:00:52;6.30;;;3.95;;
4694;SDS011;2361;49.540;8.390;2024-02-16T04:03:15;4.93;;;4.00;;
4694;SDS011;2361;49.540;8.390;2024-02-16T04:05:38;4.97;;;4.00;;
4694;SDS011;2361;49.540;8.390;2024-02-16T04:08:00;4.20;;;3.80;;
4694;SDS011;2361;49.540;8.390;2024-02-16T04:10:26;5.63;;;4.18;;
4694;SDS011;2361;49.540;8.390;2024-02-16T04:12:49;7.70;;;4.25;;
4694;SDS011;2361;49.540;8.390;2024-02-16T04:15:12;7.10;;;4.70;;
4694;SDS011;2361;49.540;8.390;2024-02-16T04:17:34;5.65;;;4.40;;
4694;SDS011;2361;49.540;8.390;2024-02-16T04:19:56;6.00;;;4.70;;
4694;SDS011;2361;49.540;8.390;2024-02-16T04:22:18;7.00;;;4.90;;
4694;SDS011;2361;49.540;8.390;2024-02-16T04:24:40;8.82;;;4.60;;
4694;SDS011;2361;49.540;8.390;2024-02-16T04:27:01;5.40;;;4.30;;
4694;SDS011;2361;49.540;8.390;2024-02-16T04:29:27;8.32;;;4.43;;
4694;SDS011;2361;49.540;8.390;2024-02-16T04:31:49;6.88;;;4.30;;
4694;SDS011;2361;49.540;8.390;2024-02-16T04:34:11;6.15;;;4.30;;
4694;SDS011;2361;49.540;8.390;2024-02-16T04:36:35;5.45;;;3.88;;
4694;SDS011;2361;49.540;8.390;2024-02-16T04:38:56;6.82;;;3.90;;
4694;SDS011;2361;49.540;8.390;2024-02-16T04:41:21;5.93;;;3.58;;
4694;SDS011;2361;49.540;8.390;2024-02-16T04:43:43;4.70;;;2.90;;
4694;SDS011;2361;49.540;8.390;2024-02-16T04:46:05;4.43;;;3.50;;
4694;SDS011;2361;49.540;8.390;2024-02-16T04:48:27;4.32;;;3.30;;
4694;SDS011;2361;49.540;8.390;2024-02-16T04:50:50;4.50;;;3.30;;
4694;SDS011;2361;49.540;8.390;2024-02-16T04:53:12;4.03;;;3.20;;
4694;SDS011;2361;49.540;8.390;2024-02-16T04:55:34;4.80;;;3.30;;
4694;SDS011;2361;49.540;8.390;2024-02-16T04:57:56;3.40;;;3.10;;
4694;SDS011;2361;49.540;8.390;2024-02-16T05:00:19;3.10;;;2.80;;
4694;SDS011;2361;49.540;8.390;2024-02-16T05:02:41;3.17;;;2.88;;
4694;SDS011;2361;49.540;8.390;2024-02-16T05:05:03;3.70;;;3.00;;
4694;SDS011;2361;49.540;8.390;2024-02-16T05:07:25;3.70;;;2.93;;
4694;SDS011;2361;49.540;8.390;2024-02-16T05:09:48;3.53;;;3.08;;
4694;SDS011;2361;49.540;8.390;2024-02-16T05:12:11;5.10;;;3.30;;
4694;SDS011;2361;49.540;8.390;2024-02-16T05:14:32;6.78;;;3.20;;
4694;SDS011;2361;49.540;8.390;2024-02-16T05:16:54;4.65;;;3.22;;
4694;SDS011;2361;49.540;8.390;2024-02-16T05:19:20;4.87;;;3.13;;
4694;SDS011;2361;49.540;8.390;2024-02-16T05:21:42;4.10;;;3.70;;
4694;SDS011;2361;49.540;8.390;2024-02-16T05:24:04;4.13;;;3.60;;
4694;SDS011;2361;49.540;8.390;2024-02-16T05:26:26;5.30;;;3.67;;
4694;SDS011;2361;49.540;8.390;2024-02-16T05:28:48;3.90;;;3.50;;
4694;SDS011;2361;49.540;8.390;2024-02-16T05:31:14;5.35;;;3.83;;
4694;SDS011;2361;49.540;8.390;2024-02-16T05:33:40;5.53;;;3.90;;
4694;SDS011;2361;49.540;8.390;2024-02-16T05:36:03;4.13;;;3.80;;
4694;SDS011;2361;49.540;8.390;2024-02-16T05:38:25;4.20;;;3.80;;
4694;SDS011;2361;49.540;8.390;2024-02-16T05:41:02;5.50;;;4.10;;
4694;SDS011;2361;49.540;8.390;2024-02-16T05:43:23;5.43;;;4.40;;
4694;SDS011;2361;49.540;8.390;2024-02-16T05:45:45;5.78;;;4.18;;
4694;SDS011;2361;49.540;8.390;2024-02-16T05:48:07;5.18;;;3.92;;
4694;SDS011;2361;49.540;8.390;2024-02-16T05:50:31;5.63;;;4.30;;
4694;SDS011;2361;49.540;8.390;2024-02-16T05:52:53;4.93;;;4.05;;
4694;SDS011;2361;49.540;8.390;2024-02-16T05:55:17;6.30;;;4.30;;
4694;SDS011;2361;49.540;8.390;2024-02-16T05:57:42;5.15;;;4.05;;
4694;SDS011;2361;49.540;8.390;2024-02-16T06:00:04;5.50;;;4.38;;
4694;SDS011;2361;49.540;8.390;2024-02-16T06:02:28;6.47;;;4.90;;
4694;SDS011;2361;49.540;8.390;2024-02-16T06:04:50;6.72;;;4.55;;
4694;SDS011;2361;49.540;8.390;2024-02-16T06:07:11;5.13;;;4.50;;
4694;SDS011;2361;49.540;8.390;2024-02-16T06:09:35;7.35;;;4.95;;
4694;SDS011;2361;49.540;8.390;2024-02-16T06:11:59;7.00;;;5.30;;
4694;SDS011;2361;49.540;8.390;2024-02-16T06:14:25;8.52;;;4.70;;
4694;SDS011;2361;49.540;8.390;2024-02-16T06:16:47;7.10;;;4.80;;
4694;SDS011;2361;49.540;8.390;2024-02-16T06:19:09;5.00;;;4.10;;
4694;SDS011;2361;49.540;8.390;2024-02-16T06:21:31;5.38;;;4.10;;
4694;SDS011;2361;49.540;8.390;2024-02-16T06:23:53;6.00;;;4.00;;
4694;SDS011;2361;49.540;8.390;2024-02-16T06:26:15;6.78;;;3.92;;
4694;SDS011;2361;49.540;8.390;2024-02-16T06:28:37;4.25;;;3.85;;
4694;SDS011;2361;49.540;8.390;2024-02-16T06:30:59;5.90;;;3.70;;
4694;SDS011;2361;49.540;8.390;2024-02-16T06:33:21;5.28;;;4.10;;
4694;SDS011;2361;49.540;8.390;2024-02-16T06:35:43;6.38;;;4.57;;
4694;SDS011;2361;49.540;8.390;2024-02-16T06:38:08;8.20;;;4.80;;
4694;SDS011;2361;49.540;8.390;2024-02-16T06:40:29;6.32;;;4.32;;
4694;SDS011;2361;49.540;8.390;2024-02-16T06:42:52;8.13;;;4.00;;
4694;SDS011;2361;49.540;8.390;2024-02-16T06:45:14;7.88;;;4.40;;
4694;SDS011;2361;49.540;8.390;2024-02-16T06:47:36;5.55;;;4.20;;
4694;SDS011;2361;49.540;8.390;2024-02-16T06:49:58;5.55;;;4.20;;
4694;SDS011;2361;49.540;8.390;2024-02-16T06:52:20;5.45;;;4.40;;
4694;SDS011;2361;49.540;8.390;2024-02-16T06:54:42;5.78;;;3.88;;
4694;SDS011;2361;49.540;8.390;2024-02-16T06:57:04;4.78;;;4.20;;
4694;SDS011;2361;49.540;8.390;2024-02-16T06:59:28;6.97;;;4.55;;
4694;SDS011;2361;49.540;8.390;2024-02-16T07:01:50;6.97;;;4.45;;
4694;SDS011;2361;49.540;8.390;2024-02-16T07:04:12;7.65;;;4.38;;
4694;SDS011;2361;49.540;8.390;2024-02-16T07:06:34;4.75;;;4.03;;
4694;SDS011;2361;49.540;8.390;2024-02-16T07:08:57;7.65;;;4.60;;
4694;SDS011;2361;49.540;8.390;2024-02-16T07:11:19;6.78;;;4.82;;
4694;SDS011;2361;49.540;8.390;2024-02-16T07:13:43;7.20;;;3.70;;
4694;SDS011;2361;49.540;8.390;2024-02-16T07:16:05;6.90;;;4.40;;
4694;SDS011;2361;49.540;8.390;2024-02-16T07:18:30;6.78;;;4.55;;
4694;SDS011;2361;49.540;8.390;2024-02-16T07:20:52;5.03;;;4.30;;
4694;SDS011;2361;49.540;8.390;2024-02-16T07:23:14;6.22;;;4.70;;
4694;SDS011;2361;49.540;8.390;2024-02-16T07:25:36;6.10;;;4.40;;
4694;SDS011;2361;49.540;8.390;2024-02-16T07:27:58;6.05;;;4.13;;
4694;SDS011;2361;49.540;8.390;2024-02-16T07:30:25;6.32;;;4.80;;
4694;SDS011;2361;49.540;8.390;2024-02-16T07:33:03;5.90;;;5.05;;
4694;SDS011;2361;49.540;8.390;2024-02-16T07:35:26;6.72;;;4.40;;
4694;SDS011;2361;49.540;8.390;2024-02-16T07:37:48;7.22;;;4.50;;
4694;SDS011;2361;49.540;8.390;2024-02-16T07:40:13;5.43;;;4.60;;
4694;SDS011;2361;49.540;8.390;2024-02-16T07:42:38;8.10;;;5.00;;
4694;SDS011;2361;49.540;8.390;2024-02-16T07:45:04;4.80;;;4.40;;
4694;SDS011;2361;49.540;8.390;2024-02-16T07:47:26;7.32;;;4.55;;
4694;SDS011;2361;49.540;8.390;2024-02-16T07:49:49;5.10;;;4.47;;
4694;SDS011;2361;49.540;8.390;2024-02-16T07:52:11;5.65;;;4.68;;
4694;SDS011;2361;49.540;8.390;2024-02-16T07:54:33;8.73;;;4.97;;
4694;SDS011;2361;49.540;8.390;2024-02-16T07:56:55;8.65;;;4.85;;
4694;SDS011;2361;49.540;8.390;2024-02-16T07:59:22;7.10;;;4.80;;
4694;SDS011;2361;49.540;8.390;2024-02-16T08:01:45;6.88;;;4.55;;
4694;SDS011;2361;49.540;8.390;2024-02-16T08:04:07;7.20;;;5.00;;
4694;SDS011;2361;49.540;8.390;2024-02-16T08:06:29;6.88;;;5.10;;
4694;SDS011;2361;49.540;8.390;2024-02-16T08:08:51;6.63;;;5.10;;
4694;SDS011;2361;49.540;8.390;2024-02-16T08:11:13;10.90;;;5.10;;
4694;SDS011;2361;49.540;8.390;2024-02-16T08:13:35;5.35;;;4.68;;
4694;SDS011;2361;49.540;8.390;2024-02-16T08:15:56;7.03;;;4.70;;
4694;SDS011;2361;49.540;8.390;2024-02-16T08:18:19;6.78;;;4.65;;
4694;SDS011;2361;49.540;8.390;2024-02-16T08:20:41;5.72;;;4.55;;
4694;SDS011;2361;49.540;8.390;2024-02-16T08:23:03;6.60;;;4.70;;
4694;SDS011;2361;49.540;8.390;2024-02-16T08:25:25;6.88;;;4.80;;
4694;SDS011;2361;49.540;8.390;2024-02-16T08:27:48;7.63;;;4.80;;
4694;SDS011;2361;49.540;8.390;2024-02-16T08:30:10;6.18;;;4.53;;
4694;SDS011;2361;49.540;8.390;2024-02-16T08:32:33;6.50;;;5.10;;
4694;SDS011;2361;49.540;8.390;2024-02-16T08:34:55;7.10;;;4.88;;
4694;SDS011;2361;49.540;8.390;2024-02-16T08:37:17;5.63;;;4.50;;
4694;SDS011;2361;49.540;8.390;2024-02-16T08:39:39;5.38;;;4.15;;
4694;SDS011;2361;49.540;8.390;2024-02-16T08:42:02;6.35;;;4.82;;
4694;SDS011;2361;49.540;8.390;2024-02-16T08:44:25;7.15;;;5.10;;
4694;SDS011;2361;49.540;8.390;2024-02-16T08:46:47;6.40;;;5.10;;
4694;SDS011;2361;49.540;8.390;2024-02-16T08:49:10;7.30;;;5.20;;
4694;SDS011;2361;49.540;8.390;2024-02-16T08:51:33;7.53;;;4.55;;
4694;SDS011;2361;49.540;8.390;2024-02-16T08:53:59;5.75;;;4.70;;
4694;SDS011;2361;49.540;8.390;2024-02-16T08:56:22;6.38;;;4.85;;
4694;SDS011;2361;49.540;8.390;2024-02-16T08:58:44;6.65;;;4.57;;
4694;SDS011;2361;49.540;8.390;2024-02-16T09:01:06;7.78;;;5.35;;
4694;SDS011;2361;49.540;8.390;2024-02-16T09:03:28;6.68;;;4.93;;
4694;SDS011;2361;49.540;8.390;2024-02-16T09:05:50;8.00;;;4.47;;
4694;SDS011;2361;49.540;8.390;2024-02-16T09:08:12;6.85;;;5.00;;
4694;SDS011;2361;49.540;8.390;2024-02-16T09:10:34;6.50;;;4.80;;
4694;SDS011;2361;49.540;8.390;2024-02-16T09:12:58;5.82;;;4.40;;
4694;SDS011;2361;49.540;8.390;2024-02-16T09:15:20;7.18;;;5.15;;
4694;SDS011;2361;49.540;8.390;2024-02-16T09:17:42;7.00;;;5.20;;
4694;SDS011;2361;49.540;8.390;2024-02-16T09:20:04;7.93;;;5.50;;
4694;SDS011;2361;49.540;8.390;2024-02-16T09:22:30;6.50;;;5.10;;
4694;SDS011;2361;49.540;8.390;2024-02-16T09:24:54;8.57;;;5.00;;
4694;SDS011;2361;49.540;8.390;2024-02-16T09:27:20;8.10;;;5.20;;
4694;SDS011;2361;49.540;8.390;2024-02-16T09:29:47;9.98;;;5.65;;
4694;SDS011;2361;49.540;8.390;2024-02-16T09:32:09;5.93;;;4.90;;
4694;SDS011;2361;49.540;8.390;2024-02-16T09:34:31;6.05;;;4.05;;
4694;SDS011;2361;49.540;8.390;2024-02-16T09:36:54;4.95;;;3.60;;
4694;SDS011;2361;49.540;8.390;2024-02-16T09:39:15;6.25;;;5.07;;
4694;SDS011;2361;49.540;8.390;2024-02-16T09:41:37;5.72;;;4.78;;
4694;SDS011;2361;49.540;8.390;2024-02-16T09:44:04;7.25;;;5.20;;
4694;SDS011;2361;49.540;8.390;2024-02-16T09:46:27;7.10;;;5.20;;
4694;SDS011;2361;49.540;8.390;2024-02-16T09:48:51;7.28;;;4.90;;
4694;SDS011;2361;49.540;8.390;2024-02-16T09:51:15;8.90;;;4.90;;
4694;SDS011;2361;49.540;8.390;2024-02-16T09:53:38;6.40;;;4.63;;
4694;SDS011;2361;49.540;8.390;2024-02-16T09:56:00;6.90;;;5.07;;
4694;SDS011;2361;49.540;8.390;2024-02-16T09:58:22;6.95;;;4.90;;
4694;SDS011;2361;49.540;8.390;2024-02-16T10:00:51;8.95;;;4.93;;
4694;SDS011;2361;49.540;8.390;2024-02-16T10:03:22;6.13;;;4.80;;
4694;SDS011;2361;49.540;8.390;2024-02-16T10:05:50;7.15;;;5.50;;
4694;SDS011;2361;49.540;8.390;2024-02-16T10:08:14;7.57;;;5.17;;
4694;SDS011;2361;49.540;8.390;2024-02-16T10:10:36;8.07;;;5.10;;
4694;SDS011;2361;49.540;8.390;2024-02-16T10:13:05;6.88;;;4.75;;
4694;SDS011;2361;49.540;8.390;2024-02-16T10:15:29;6.23;;;4.60;;
4694;SDS011;2361;49.540;8.390;2024-02-16T10:18:01;7.18;;;5.00;;
4694;SDS011;2361;49.540;8.390;2024-02-16T10:20:27;7.63;;;4.80;;
4694;SDS011;2361;49.540;8.390;2024-02-16T10:22:49;4.70;;;4.20;;
4694;SDS011;2361;49.540;8.390;2024-02-16T10:25:11;6.20;;;3.83;;
4694;SDS011;2361;49.540;8.390;2024-02-16T10:27:34;5.72;;;3.50;;
4694;SDS011;2361;49.540;8.390;2024-02-16T10:29:56;7.30;;;3.80;;
4694;SDS011;2361;49.540;8.390;2024-02-16T10:32:18;5.30;;;3.90;;
4694;SDS011;2361;49.540;8.390;2024-02-16T10:34:41;5.57;;;3.90;;
4694;SDS011;2361;49.540;8.390;2024-02-16T10:37:04;3.80;;;3.30;;
4694;SDS011;2361;49.540;8.390;2024-02-16T10:39:28;3.97;;;3.20;;
4694;SDS011;2361;49.540;8.390;2024-02-16T10:41:51;4.13;;;2.92;;
4694;SDS011;2361;49.540;8.390;2024-02-16T10:44:14;3.27;;;2.97;;
4694;SDS011;2361;49.540;8.390;2024-02-16T10:46:36;2.80;;;2.50;;
4694;SDS011;2361;49.540;8.390;2024-02-16T10:48:58;2.67;;;2.47;;
4694;SDS011;2361;49.540;8.390;2024-02-16T10:51:33;6.32;;;3.10;;
4694;SDS011;2361;49.540;8.390;2024-02-16T10:54:05;3.90;;;2.85;;
4694;SDS011;2361;49.540;8.390;2024-02-16T10:56:33;3.93;;;2.60;;
4694;SDS011;2361;49.540;8.390;2024-02-16T10:58:59;4.65;;;2.40;;
4694;SDS011;2361;49.540;8.390;2024-02-16T11:01:23;4.53;;;2.22;;
4694;SDS011;2361;49.540;8.390;2024-02-16T11:03:45;3.22;;;2.40;;
4694;SDS011;2361;49.540;8.390;2024-02-16T11:06:14;3.60;;;2.30;;
4694;SDS011;2361;49.540;8.390;2024-02-16T11:08:40;2.50;;;2.30;;
4694;SDS011;2361;49.540;8.390;2024-02-16T11:11:01;3.83;;;2.10;;
4694;SDS011;2361;49.540;8.390;2024-02-16T11:13:25;3.60;;;2.80;;
4694;SDS011;2361;49.540;8.390;2024-02-16T11:15:55;2.85;;;2.38;;
4694;SDS011;2361;49.540;8.390;2024-02-16T11:18:22;3.05;;;2.30;;
4694;SDS011;2361;49.540;8.390;2024-02-16T11:20:44;2.20;;;2.00;;
4694;SDS011;2361;49.540;8.390;2024-02-16T11:23:09;8.32;;;2.33;;
4694;SDS011;2361;49.540;8.390;2024-02-16T11:25:32;4.18;;;2.40;;
4694;SDS011;2361;49.540;8.390;2024-02-16T11:27:54;2.38;;;2.00;;
4694;SDS011;2361;49.540;8.390;2024-02-16T11:30:16;2.65;;;1.95;;
4694;SDS011;2361;49.540;8.390;2024-02-16T11:32:37;3.97;;;2.15;;
4694;SDS011;2361;49.540;8.390;2024-02-16T11:35:05;2.67;;;2.10;;
4694;SDS011;2361;49.540;8.390;2024-02-16T11:37:29;3.47;;;2.20;;
4694;SDS011;2361;49.540;8.390;2024-02-16T11:39:57;3.25;;;2.00;;
4694;SDS011;2361;49.540;8.390;2024-02-16T11:42:19;2.10;;;1.80;;
4694;SDS011;2361;49.540;8.390;2024-02-16T11:44:49;4.50;;;1.80;;
4694;SDS011;2361;49.540;8.390;2024-02-16T11:47:18;1.90;;;1.80;;
4694;SDS011;2361;49.540;8.390;2024-02-16T11:52:33;3.05;;;1.90;;
4694;SDS011;2361;49.540;8.390;2024-02-16T11:54:56;2.88;;;1.70;;
4694;SDS011;2361;49.540;8.390;2024-02-16T11:57:23;3.22;;;2.03;;
4694;SDS011;2361;49.540;8.390;2024-02-16T11:59:45;3.63;;;2.00;;
4694;SDS011;2361;49.540;8.390;2024-02-16T12:02:07;2.38;;;2.17;;
4694;SDS011;2361;49.540;8.390;2024-02-16T12:04:45;5.20;;;2.40;;
4694;SDS011;2361;49.540;8.390;2024-02-16T12:07:18;3.92;;;2.40;;
4694;SDS011;2361;49.540;8.390;2024-02-16T12:09:40;3.13;;;2.13;;
4694;SDS011;2361;49.540;8.390;2024-02-16T12:12:02;2.78;;;2.38;;
4694;SDS011;2361;49.540;8.390;2024-02-16T12:14:27;2.50;;;1.92;;
4694;SDS011;2361;49.540;8.390;2024-02-16T12:16:49;5.45;;;2.50;;
4694;SDS011;2361;49.540;8.390;2024-02-16T12:19:13;2.78;;;2.50;;
4694;SDS011;2361;49.540;8.390;2024-02-16T12:21:35;4.38;;;2.20;;
4694;SDS011;2361;49.540;8.390;2024-02-16T12:23:57;4.53;;;2.20;;
4694;SDS011;2361;49.540;8.390;2024-02-16T12:26:19;3.10;;;2.05;;
4694;SDS011;2361;49.540;8.390;2024-02-16T12:28:41;2.50;;;2.30;;
4694;SDS011;2361;49.540;8.390;2024-02-16T12:31:03;3.55;;;2.50;;
4694;SDS011;2361;49.540;8.390;2024-02-16T12:33:25;3.05;;;2.17;;
4694;SDS011;2361;49.540;8.390;2024-02-16T12:35:48;4.57;;;2.40;;
4694;SDS011;2361;49.540;8.390;2024-02-16T12:38:13;2.72;;;2.40;;
4694;SDS011;2361;49.540;8.390;2024-02-16T12:40:38;4.38;;;2.20;;
4694;SDS011;2361;49.540;8.390;2024-02-16T12:43:00;3.13;;;2.20;;
4694;SDS011;2361;49.540;8.390;2024-02-16T12:45:22;2.30;;;2.10;;
4694;SDS011;2361;49.540;8.390;2024-02-16T12:47:45;4.07;;;2.20;;
4694;SDS011;2361;49.540;8.390;2024-02-16T12:50:08;2.20;;;2.00;;
4694;SDS011;2361;49.540;8.390;2024-02-16T12:52:30;3.15;;;1.60;;
4694;SDS011;2361;49.540;8.390;2024-02-16T12:55:01;3.78;;;2.00;;
4694;SDS011;2361;49.540;8.390;2024-02-16T12:57:23;3.47;;;1.90;;
4694;SDS011;2361;49.540;8.390;2024-02-16T12:59:45;1.90;;;1.80;;
4694;SDS011;2361;49.540;8.390;2024-02-16T13:02:07;2.28;;;1.90;;
4694;SDS011;2361;49.540;8.390;2024-02-16T13:04:29;2.65;;;2.17;;
4694;SDS011;2361;49.540;8.390;2024-02-16T13:06:53;5.18;;;2.00;;
4694;SDS011;2361;49.540;8.390;2024-02-16T13:09:16;3.47;;;1.90;;
4694;SDS011;2361;49.540;8.390;2024-02-16T13:11:38;2.93;;;1.83;;
4694;SDS011;2361;49.540;8.390;2024-02-16T13:14:03;2.15;;;1.90;;
4694;SDS011;2361;49.540;8.390;2024-02-16T13:16:25;4.38;;;2.20;;
4694;SDS011;2361;49.540;8.390;2024-02-16T13:18:48;3.28;;;1.95;;
4694;SDS011;2361;49.540;8.390;2024-02-16T13:21:10;1.70;;;1.60;;
4694;SDS011;2361;49.540;8.390;2024-02-16T13:23:32;3.85;;;1.90;;
4694;SDS011;2361;49.540;8.390;2024-02-16T13:25:54;3.20;;;2.17;;
4694;SDS011;2361;49.540;8.390;2024-02-16T13:28:16;2.97;;;1.70;;
4694;SDS011;2361;49.540;8.390;2024-02-16T13:30:38;3.05;;;2.03;;
4694;SDS011;2361;49.540;8.390;2024-02-16T13:33:00;2.53;;;2.00;;
4694;SDS011;2361;49.540;8.390;2024-02-16T13:35:22;2.58;;;1.90;;
4694;SDS011;2361;49.540;8.390;2024-02-16T13:37:44;2.35;;;1.80;;
4694;SDS011;2361;49.540;8.390;2024-02-16T13:40:07;1.90;;;1.80;;
4694;SDS011;2361;49.540;8.390;2024-02-16T13:42:32;11.18;;;6.28;;
4694;SDS011;2361;49.540;8.390;2024-02-16T13:44:55;2.90;;;2.20;;
4694;SDS011;2361;49.540;8.390;2024-02-16T13:47:17;3.08;;;2.10;;
4694;SDS011;2361;49.540;8.390;2024-02-16T13:49:40;2.30;;;1.80;;
4694;SDS011;2361;49.540;8.390;2024-02-16T13:52:02;1.77;;;1.67;;
4694;SDS011;2361;49.540;8.390;2024-02-16T13:54:25;2.60;;;1.87;;
4694;SDS011;2361;49.540;8.390;2024-02-16T13:56:47;1.90;;;1.80;;
4694;SDS011;2361;49.540;8.390;2024-02-16T13:59:09;3.53;;;1.80;;
4694;SDS011;2361;49.540;8.390;2024-02-16T14:01:31;3.50;;;2.00;;
4694;SDS011;2361;49.540;8.390;2024-02-16T14:03:54;2.03;;;1.80;;
4694;SDS011;2361;49.540;8.390;2024-02-16T14:06:17;4.63;;;1.90;;
4694;SDS011;2361;49.540;8.390;2024-02-16T14:08:39;2.00;;;1.80;;
4694;SDS011;2361;49.540;8.390;2024-02-16T14:11:01;3.20;;;1.90;;
4694;SDS011;2361;49.540;8.390;2024-02-16T14:13:23;2.25;;;1.80;;
4694;SDS011;2361;49.540;8.390;2024-02-16T14:15:46;2.37;;;1.70;;
4694;SDS011;2361;49.540;8.390;2024-02-16T14:18:08;2.17;;;1.98;;
4694;SDS011;2361;49.540;8.390;2024-02-16T14:20:42;1.70;;;1.60;;
4694;SDS011;2361;49.540;8.390;2024-02-16T14:23:03;3.80;;;1.83;;
4694;SDS011;2361;49.540;8.390;2024-02-16T14:25:29;2.05;;;1.60;;
4694;SDS011;2361;49.540;8.390;2024-02-16T14:27:51;2.37;;;1.70;;
4694;SDS011;2361;49.540;8.390;2024-02-16T14:30:13;3.92;;;2.13;;
4694;SDS011;2361;49.540;8.390;2024-02-16T14:32:35;2.70;;;1.80;;
4694;SDS011;2361;49.540;8.390;2024-02-16T14:34:57;2.90;;;1.90;;
4694;SDS011;2361;49.540;8.390;2024-02-16T14:37:19;3.75;;;1.75;;
4694;SDS011;2361;49.540;8.390;2024-02-16T14:39:41;2.45;;;1.83;;
4694;SDS011;2361;49.540;8.390;2024-02-16T14:42:03;2.40;;;2.20;;
4694;SDS011;2361;49.540;8.390;2024-02-16T14:44:25;3.28;;;2.00;;
4694;SDS011;2361;49.540;8.390;2024-02-16T14:46:47;2.55;;;1.88;;
4694;SDS011;2361;49.540;8.390;2024-02-16T14:49:09;3.50;;;2.10;;
4694;SDS011;2361;49.540;8.390;2024-02-16T14:51:31;2.50;;;2.30;;